Big Piney, WY weather

Big Piney-Marbleton Airport (AMOS), Big Piney, WY: 2/22/2018 10:53
Visibility10 statute milessun with broken clouds
View 7-Day Forecast
Area Summary
Sky/CloudsBroken at 6000ft
Weather [last 24 hours]None
Pressure29.95 in.Hg (1014 hPa)
3-hour Pressure Tendency0.01181 in.Hg (0.4 hPa) Steady or increasing, then decreasing; or decreasing then decreasing more rapidly
Dew Point1 °F (-17.2 °C)
Relative Humidity66.2 %
Temperature10 °F (-12.2 °C)blue thermometer
Reading TimeMinimum to Maximum Temperature
6-hr ending 2/22@10:53-13 °F to 10.9 °F (-25 °C to -11.7 °C)
6-hr ending 2/22@04:53-18 °F to -9.9 °F (-27.8 °C to -23.3 °C)
6-hr ending 2/21@22:53-11.9 °F to 12 °F (-24.4 °C to -11.1 °C)
6-hr ending 2/21@16:53-2 °F to 14 °F (-18.9 °C to -10 °C)
24-hr ending 2/21@23:53-25.1 °F to 14 °F (-31.7 °C to -10 °C)
Wind0 MPH (0 KT) green arrow pointing at 0 degrees
Wind FromNorth (000 Degrees)
Twilight Begins06:36Sunshine Yesterday
Sunrise07:04N/A
Sunset18:04
Twilight Ends18:33
METARKBPI 221753Z AUTO 00000KT 10SM BKN060 M12/M17 A2995 RMK AO2 SLP244 T11221172 11117 21250 58004
Tags: